Terminal Aerodrome Forecast
Issued by NWS

Home | Current Version | Previous Version | Text Only | Print | Product List | Glossary On
Versions: 1 2 3 4 5 6 7 8 9 10 11 12 13 14 15
412
FTUS46 KPDT 221120
TAFPSC
TAF
KPSC 221120Z 2212/2312 VRB03KT P6SM FEW100 BKN120
     FM221700 24008KT P6SM FEW070 SCT120
     FM230300 VRB04KT P6SM SCT120=

USA.gov is the U.S. government's official web portal to all federal, state and local government web resources and services.